sensor_id;sensor_type;location;lat;lon;timestamp;P1;durP1;ratioP1;P2;durP2;ratioP2
6757;SDS011;3416;53.074;8.822;2022-12-17T00:02:39;63.03;;;38.70;;
6757;SDS011;3416;53.074;8.822;2022-12-17T00:05:24;58.45;;;38.03;;
6757;SDS011;3416;53.074;8.822;2022-12-17T00:08:08;57.88;;;37.08;;
6757;SDS011;3416;53.074;8.822;2022-12-17T00:10:52;54.65;;;35.85;;
6757;SDS011;3416;53.074;8.822;2022-12-17T00:13:36;50.95;;;36.35;;
6757;SDS011;3416;53.074;8.822;2022-12-17T00:16:21;56.17;;;35.10;;
6757;SDS011;3416;53.074;8.822;2022-12-17T00:19:06;57.17;;;34.40;;
6757;SDS011;3416;53.074;8.822;2022-12-17T00:21:58;49.50;;;33.50;;
6757;SDS011;3416;53.074;8.822;2022-12-17T00:24:43;57.78;;;38.50;;
6757;SDS011;3416;53.074;8.822;2022-12-17T00:27:27;49.60;;;35.88;;
6757;SDS011;3416;53.074;8.822;2022-12-17T00:30:11;51.15;;;35.08;;
6757;SDS011;3416;53.074;8.822;2022-12-17T00:32:57;48.97;;;33.63;;
6757;SDS011;3416;53.074;8.822;2022-12-17T00:35:42;55.10;;;38.33;;
6757;SDS011;3416;53.074;8.822;2022-12-17T00:38:26;64.60;;;38.95;;
6757;SDS011;3416;53.074;8.822;2022-12-17T00:41:11;48.67;;;36.20;;
6757;SDS011;3416;53.074;8.822;2022-12-17T00:43:55;49.08;;;34.38;;
6757;SDS011;3416;53.074;8.822;2022-12-17T00:46:39;53.47;;;34.83;;
6757;SDS011;3416;53.074;8.822;2022-12-17T00:49:25;54.03;;;37.97;;
6757;SDS011;3416;53.074;8.822;2022-12-17T00:52:10;63.75;;;35.05;;
6757;SDS011;3416;53.074;8.822;2022-12-17T00:54:54;51.92;;;38.55;;
6757;SDS011;3416;53.074;8.822;2022-12-17T00:57:39;57.15;;;36.22;;
6757;SDS011;3416;53.074;8.822;2022-12-17T01:00:23;51.90;;;36.20;;
6757;SDS011;3416;53.074;8.822;2022-12-17T01:03:08;55.50;;;38.58;;
6757;SDS011;3416;53.074;8.822;2022-12-17T01:05:55;54.97;;;36.05;;
6757;SDS011;3416;53.074;8.822;2022-12-17T01:08:43;63.03;;;38.80;;
6757;SDS011;3416;53.074;8.822;2022-12-17T01:11:27;59.15;;;39.70;;
6757;SDS011;3416;53.074;8.822;2022-12-17T01:14:12;53.70;;;36.97;;
6757;SDS011;3416;53.074;8.822;2022-12-17T01:16:56;60.95;;;41.13;;
6757;SDS011;3416;53.074;8.822;2022-12-17T01:19:41;56.63;;;39.40;;
6757;SDS011;3416;53.074;8.822;2022-12-17T01:22:26;53.35;;;37.17;;
6757;SDS011;3416;53.074;8.822;2022-12-17T01:25:10;56.33;;;36.15;;
6757;SDS011;3416;53.074;8.822;2022-12-17T01:27:55;63.42;;;37.55;;
6757;SDS011;3416;53.074;8.822;2022-12-17T01:30:39;50.95;;;36.65;;
6757;SDS011;3416;53.074;8.822;2022-12-17T01:33:23;52.35;;;38.28;;
6757;SDS011;3416;53.074;8.822;2022-12-17T01:36:08;54.35;;;39.30;;
6757;SDS011;3416;53.074;8.822;2022-12-17T01:38:53;59.17;;;38.83;;
6757;SDS011;3416;53.074;8.822;2022-12-17T01:41:38;55.78;;;37.85;;
6757;SDS011;3416;53.074;8.822;2022-12-17T01:44:44;59.20;;;41.05;;
6757;SDS011;3416;53.074;8.822;2022-12-17T01:47:32;50.08;;;36.22;;
6757;SDS011;3416;53.074;8.822;2022-12-17T01:50:20;59.72;;;35.00;;
6757;SDS011;3416;53.074;8.822;2022-12-17T01:53:06;57.38;;;37.95;;
6757;SDS011;3416;53.074;8.822;2022-12-17T01:55:52;57.28;;;40.25;;
6757;SDS011;3416;53.074;8.822;2022-12-17T01:58:37;52.75;;;37.00;;
6757;SDS011;3416;53.074;8.822;2022-12-17T02:01:23;53.70;;;37.08;;
6757;SDS011;3416;53.074;8.822;2022-12-17T02:04:08;52.63;;;37.35;;
6757;SDS011;3416;53.074;8.822;2022-12-17T02:06:53;55.95;;;37.95;;
6757;SDS011;3416;53.074;8.822;2022-12-17T02:09:48;52.15;;;36.53;;
6757;SDS011;3416;53.074;8.822;2022-12-17T02:12:40;59.88;;;35.90;;
6757;SDS011;3416;53.074;8.822;2022-12-17T02:15:29;55.92;;;36.70;;
6757;SDS011;3416;53.074;8.822;2022-12-17T02:18:21;51.35;;;36.58;;
6757;SDS011;3416;53.074;8.822;2022-12-17T02:21:11;60.50;;;37.67;;
6757;SDS011;3416;53.074;8.822;2022-12-17T02:23:58;63.78;;;38.75;;
6757;SDS011;3416;53.074;8.822;2022-12-17T02:26:49;64.72;;;39.85;;
6757;SDS011;3416;53.074;8.822;2022-12-17T02:29:36;57.90;;;37.58;;
6757;SDS011;3416;53.074;8.822;2022-12-17T02:32:25;61.63;;;39.10;;
6757;SDS011;3416;53.074;8.822;2022-12-17T02:35:11;60.42;;;39.28;;
6757;SDS011;3416;53.074;8.822;2022-12-17T02:38:14;65.53;;;37.75;;
6757;SDS011;3416;53.074;8.822;2022-12-17T02:41:00;55.08;;;38.47;;
6757;SDS011;3416;53.074;8.822;2022-12-17T02:43:48;55.40;;;35.90;;
6757;SDS011;3416;53.074;8.822;2022-12-17T02:46:33;57.20;;;38.28;;
6757;SDS011;3416;53.074;8.822;2022-12-17T02:49:17;61.45;;;37.30;;
6757;SDS011;3416;53.074;8.822;2022-12-17T02:52:02;73.13;;;38.15;;
6757;SDS011;3416;53.074;8.822;2022-12-17T02:54:49;55.60;;;35.05;;
6757;SDS011;3416;53.074;8.822;2022-12-17T02:57:35;54.50;;;35.72;;
6757;SDS011;3416;53.074;8.822;2022-12-17T03:03:21;51.08;;;34.78;;
6757;SDS011;3416;53.074;8.822;2022-12-17T03:06:05;53.60;;;35.25;;
6757;SDS011;3416;53.074;8.822;2022-12-17T03:08:50;55.63;;;36.78;;
6757;SDS011;3416;53.074;8.822;2022-12-17T03:11:34;58.95;;;36.45;;
6757;SDS011;3416;53.074;8.822;2022-12-17T03:14:19;59.92;;;34.72;;
6757;SDS011;3416;53.074;8.822;2022-12-17T03:17:05;51.25;;;35.53;;
6757;SDS011;3416;53.074;8.822;2022-12-17T03:19:49;49.33;;;33.47;;
6757;SDS011;3416;53.074;8.822;2022-12-17T03:22:33;51.83;;;34.58;;
6757;SDS011;3416;53.074;8.822;2022-12-17T03:25:17;50.17;;;36.17;;
6757;SDS011;3416;53.074;8.822;2022-12-17T03:28:02;55.63;;;33.95;;
6757;SDS011;3416;53.074;8.822;2022-12-17T03:30:48;56.17;;;34.85;;
6757;SDS011;3416;53.074;8.822;2022-12-17T03:33:33;55.13;;;34.35;;
6757;SDS011;3416;53.074;8.822;2022-12-17T03:36:20;60.67;;;37.30;;
6757;SDS011;3416;53.074;8.822;2022-12-17T03:39:04;47.60;;;35.70;;
6757;SDS011;3416;53.074;8.822;2022-12-17T03:41:45;53.78;;;34.88;;
6757;SDS011;3416;53.074;8.822;2022-12-17T03:44:30;57.53;;;35.88;;
6757;SDS011;3416;53.074;8.822;2022-12-17T03:47:14;54.88;;;37.22;;
6757;SDS011;3416;53.074;8.822;2022-12-17T03:49:59;56.13;;;36.70;;
6757;SDS011;3416;53.074;8.822;2022-12-17T03:52:44;57.90;;;35.75;;
6757;SDS011;3416;53.074;8.822;2022-12-17T03:55:28;52.88;;;34.30;;
6757;SDS011;3416;53.074;8.822;2022-12-17T03:58:12;45.70;;;32.38;;
6757;SDS011;3416;53.074;8.822;2022-12-17T04:00:57;49.30;;;34.17;;
6757;SDS011;3416;53.074;8.822;2022-12-17T04:03:42;57.92;;;32.45;;
6757;SDS011;3416;53.074;8.822;2022-12-17T04:06:27;51.65;;;33.95;;
6757;SDS011;3416;53.074;8.822;2022-12-17T04:09:15;52.13;;;34.33;;
6757;SDS011;3416;53.074;8.822;2022-12-17T04:11:59;54.15;;;34.60;;
6757;SDS011;3416;53.074;8.822;2022-12-17T04:14:44;45.95;;;33.30;;
6757;SDS011;3416;53.074;8.822;2022-12-17T04:17:28;56.05;;;35.95;;
6757;SDS011;3416;53.074;8.822;2022-12-17T04:20:12;50.45;;;32.65;;
6757;SDS011;3416;53.074;8.822;2022-12-17T04:22:58;53.03;;;36.25;;
6757;SDS011;3416;53.074;8.822;2022-12-17T04:25:42;57.38;;;35.97;;
6757;SDS011;3416;53.074;8.822;2022-12-17T04:28:27;56.85;;;38.22;;
6757;SDS011;3416;53.074;8.822;2022-12-17T04:31:20;65.72;;;39.13;;
6757;SDS011;3416;53.074;8.822;2022-12-17T04:34:04;56.70;;;38.88;;
6757;SDS011;3416;53.074;8.822;2022-12-17T04:36:48;70.15;;;41.50;;
6757;SDS011;3416;53.074;8.822;2022-12-17T04:39:34;67.15;;;39.80;;
6757;SDS011;3416;53.074;8.822;2022-12-17T04:42:21;59.63;;;37.05;;
6757;SDS011;3416;53.074;8.822;2022-12-17T04:45:06;55.70;;;35.78;;
6757;SDS011;3416;53.074;8.822;2022-12-17T04:47:58;82.07;;;41.63;;
6757;SDS011;3416;53.074;8.822;2022-12-17T04:50:43;58.20;;;39.28;;
6757;SDS011;3416;53.074;8.822;2022-12-17T04:53:27;66.32;;;41.10;;
6757;SDS011;3416;53.074;8.822;2022-12-17T04:56:13;53.53;;;37.58;;
6757;SDS011;3416;53.074;8.822;2022-12-17T04:58:57;63.53;;;41.35;;
6757;SDS011;3416;53.074;8.822;2022-12-17T05:01:38;62.78;;;40.38;;
6757;SDS011;3416;53.074;8.822;2022-12-17T05:04:22;63.60;;;39.67;;
6757;SDS011;3416;53.074;8.822;2022-12-17T05:07:06;64.45;;;41.50;;
6757;SDS011;3416;53.074;8.822;2022-12-17T05:09:51;60.45;;;38.55;;
6757;SDS011;3416;53.074;8.822;2022-12-17T05:12:36;73.18;;;41.92;;
6757;SDS011;3416;53.074;8.822;2022-12-17T05:15:21;70.30;;;41.28;;
6757;SDS011;3416;53.074;8.822;2022-12-17T05:18:05;62.17;;;39.10;;
6757;SDS011;3416;53.074;8.822;2022-12-17T05:20:50;62.63;;;41.58;;
6757;SDS011;3416;53.074;8.822;2022-12-17T05:23:34;67.85;;;40.28;;
6757;SDS011;3416;53.074;8.822;2022-12-17T05:26:19;72.80;;;38.80;;
6757;SDS011;3416;53.074;8.822;2022-12-17T05:29:08;70.43;;;40.92;;
6757;SDS011;3416;53.074;8.822;2022-12-17T05:31:53;60.72;;;39.35;;
6757;SDS011;3416;53.074;8.822;2022-12-17T05:34:37;71.43;;;42.65;;
6757;SDS011;3416;53.074;8.822;2022-12-17T05:37:22;88.32;;;45.20;;
6757;SDS011;3416;53.074;8.822;2022-12-17T05:40:06;81.40;;;42.25;;
6757;SDS011;3416;53.074;8.822;2022-12-17T05:42:55;77.88;;;45.22;;
6757;SDS011;3416;53.074;8.822;2022-12-17T05:45:42;80.97;;;44.83;;
6757;SDS011;3416;53.074;8.822;2022-12-17T05:48:27;87.13;;;48.13;;
6757;SDS011;3416;53.074;8.822;2022-12-17T05:51:12;74.38;;;44.88;;
6757;SDS011;3416;53.074;8.822;2022-12-17T05:53:56;76.47;;;44.95;;
6757;SDS011;3416;53.074;8.822;2022-12-17T05:56:40;123.15;;;45.58;;
6757;SDS011;3416;53.074;8.822;2022-12-17T05:59:24;76.65;;;45.35;;
6757;SDS011;3416;53.074;8.822;2022-12-17T06:02:10;81.70;;;45.90;;
6757;SDS011;3416;53.074;8.822;2022-12-17T06:04:54;118.13;;;50.72;;
6757;SDS011;3416;53.074;8.822;2022-12-17T06:07:39;90.28;;;46.85;;
6757;SDS011;3416;53.074;8.822;2022-12-17T06:10:23;84.60;;;48.78;;
6757;SDS011;3416;53.074;8.822;2022-12-17T06:13:08;84.75;;;45.33;;
6757;SDS011;3416;53.074;8.822;2022-12-17T06:15:52;82.20;;;45.22;;
6757;SDS011;3416;53.074;8.822;2022-12-17T06:18:38;91.95;;;47.97;;
6757;SDS011;3416;53.074;8.822;2022-12-17T06:21:22;73.75;;;44.17;;
6757;SDS011;3416;53.074;8.822;2022-12-17T06:24:06;88.53;;;46.90;;
6757;SDS011;3416;53.074;8.822;2022-12-17T06:26:51;93.07;;;46.97;;
6757;SDS011;3416;53.074;8.822;2022-12-17T06:29:35;91.63;;;44.97;;
6757;SDS011;3416;53.074;8.822;2022-12-17T06:32:20;89.38;;;47.17;;
6757;SDS011;3416;53.074;8.822;2022-12-17T06:35:07;78.80;;;46.50;;
6757;SDS011;3416;53.074;8.822;2022-12-17T06:37:56;87.82;;;42.60;;
6757;SDS011;3416;53.074;8.822;2022-12-17T06:40:41;78.15;;;42.97;;
6757;SDS011;3416;53.074;8.822;2022-12-17T06:43:25;89.90;;;49.00;;
6757;SDS011;3416;53.074;8.822;2022-12-17T06:46:09;97.97;;;47.40;;
6757;SDS011;3416;53.074;8.822;2022-12-17T06:48:54;98.60;;;44.78;;
6757;SDS011;3416;53.074;8.822;2022-12-17T06:51:39;76.53;;;45.25;;
6757;SDS011;3416;53.074;8.822;2022-12-17T06:54:23;93.75;;;45.10;;
6757;SDS011;3416;53.074;8.822;2022-12-17T06:57:08;77.78;;;43.17;;
6757;SDS011;3416;53.074;8.822;2022-12-17T07:00:04;82.68;;;43.30;;
6757;SDS011;3416;53.074;8.822;2022-12-17T07:02:53;78.65;;;44.80;;
6757;SDS011;3416;53.074;8.822;2022-12-17T07:05:38;82.57;;;44.15;;
6757;SDS011;3416;53.074;8.822;2022-12-17T07:08:23;100.82;;;46.30;;
6757;SDS011;3416;53.074;8.822;2022-12-17T07:11:07;81.00;;;45.28;;
6757;SDS011;3416;53.074;8.822;2022-12-17T07:13:52;97.20;;;43.83;;
6757;SDS011;3416;53.074;8.822;2022-12-17T07:16:36;79.70;;;42.40;;
6757;SDS011;3416;53.074;8.822;2022-12-17T07:19:20;73.35;;;40.80;;
6757;SDS011;3416;53.074;8.822;2022-12-17T07:22:04;70.32;;;44.05;;
6757;SDS011;3416;53.074;8.822;2022-12-17T07:24:50;81.25;;;43.95;;
6757;SDS011;3416;53.074;8.822;2022-12-17T07:27:34;96.15;;;45.67;;
6757;SDS011;3416;53.074;8.822;2022-12-17T07:30:18;70.40;;;40.30;;
6757;SDS011;3416;53.074;8.822;2022-12-17T07:33:04;87.95;;;45.47;;
6757;SDS011;3416;53.074;8.822;2022-12-17T07:35:51;79.70;;;42.50;;
6757;SDS011;3416;53.074;8.822;2022-12-17T07:38:36;79.65;;;44.30;;
6757;SDS011;3416;53.074;8.822;2022-12-17T07:44:45;104.43;;;46.10;;
6757;SDS011;3416;53.074;8.822;2022-12-17T07:47:30;85.78;;;43.75;;
6757;SDS011;3416;53.074;8.822;2022-12-17T07:50:14;100.85;;;50.80;;
6757;SDS011;3416;53.074;8.822;2022-12-17T07:52:59;83.60;;;44.13;;
6757;SDS011;3416;53.074;8.822;2022-12-17T07:55:44;90.25;;;46.17;;
6757;SDS011;3416;53.074;8.822;2022-12-17T07:58:28;90.93;;;47.33;;
6757;SDS011;3416;53.074;8.822;2022-12-17T08:01:13;100.85;;;46.42;;
6757;SDS011;3416;53.074;8.822;2022-12-17T08:07:21;111.05;;;49.55;;
6757;SDS011;3416;53.074;8.822;2022-12-17T08:20:53;88.43;;;44.88;;
6757;SDS011;3416;53.074;8.822;2022-12-17T08:23:53;88.28;;;40.60;;
6757;SDS011;3416;53.074;8.822;2022-12-17T08:26:38;80.15;;;40.90;;
6757;SDS011;3416;53.074;8.822;2022-12-17T08:29:54;77.60;;;40.88;;
6757;SDS011;3416;53.074;8.822;2022-12-17T08:49:22;90.38;;;42.42;;
6757;SDS011;3416;53.074;8.822;2022-12-17T08:52:06;70.82;;;37.55;;
6757;SDS011;3416;53.074;8.822;2022-12-17T08:54:51;78.40;;;39.95;;
6757;SDS011;3416;53.074;8.822;2022-12-17T08:57:35;73.70;;;43.00;;
6757;SDS011;3416;53.074;8.822;2022-12-17T09:02:54;96.93;;;41.03;;
6757;SDS011;3416;53.074;8.822;2022-12-17T09:05:41;81.28;;;44.00;;
6757;SDS011;3416;53.074;8.822;2022-12-17T09:08:25;87.68;;;46.60;;
6757;SDS011;3416;53.074;8.822;2022-12-17T09:11:09;93.63;;;47.03;;
6757;SDS011;3416;53.074;8.822;2022-12-17T09:13:53;88.35;;;43.83;;
6757;SDS011;3416;53.074;8.822;2022-12-17T09:16:38;97.60;;;44.53;;
6757;SDS011;3416;53.074;8.822;2022-12-17T09:19:22;92.18;;;44.83;;
6757;SDS011;3416;53.074;8.822;2022-12-17T09:22:07;78.90;;;42.53;;
6757;SDS011;3416;53.074;8.822;2022-12-17T09:24:53;81.40;;;40.75;;
6757;SDS011;3416;53.074;8.822;2022-12-17T09:27:40;64.20;;;37.25;;
6757;SDS011;3416;53.074;8.822;2022-12-17T09:30:24;71.05;;;35.90;;
6757;SDS011;3416;53.074;8.822;2022-12-17T09:33:12;67.65;;;35.75;;
6757;SDS011;3416;53.074;8.822;2022-12-17T09:36:01;51.53;;;31.40;;
6757;SDS011;3416;53.074;8.822;2022-12-17T09:38:48;62.42;;;35.38;;
6757;SDS011;3416;53.074;8.822;2022-12-17T09:41:35;63.40;;;34.55;;
6757;SDS011;3416;53.074;8.822;2022-12-17T09:44:27;64.82;;;35.30;;
6757;SDS011;3416;53.074;8.822;2022-12-17T09:47:19;63.92;;;35.50;;
6757;SDS011;3416;53.074;8.822;2022-12-17T09:50:12;64.90;;;36.15;;
6757;SDS011;3416;53.074;8.822;2022-12-17T09:52:58;70.20;;;35.80;;
6757;SDS011;3416;53.074;8.822;2022-12-17T09:55:46;57.95;;;31.58;;
6757;SDS011;3416;53.074;8.822;2022-12-17T09:58:33;76.10;;;36.75;;
6757;SDS011;3416;53.074;8.822;2022-12-17T10:01:20;57.63;;;35.15;;
6757;SDS011;3416;53.074;8.822;2022-12-17T10:04:09;61.33;;;32.53;;
6757;SDS011;3416;53.074;8.822;2022-12-17T10:06:58;56.72;;;31.45;;
6757;SDS011;3416;53.074;8.822;2022-12-17T10:09:43;59.30;;;35.22;;
6757;SDS011;3416;53.074;8.822;2022-12-17T10:12:33;62.15;;;37.00;;
6757;SDS011;3416;53.074;8.822;2022-12-17T10:15:17;53.90;;;32.67;;
6757;SDS011;3416;53.074;8.822;2022-12-17T10:18:03;63.65;;;33.63;;
6757;SDS011;3416;53.074;8.822;2022-12-17T10:20:51;61.28;;;35.38;;
6757;SDS011;3416;53.074;8.822;2022-12-17T10:23:40;59.90;;;32.08;;
6757;SDS011;3416;53.074;8.822;2022-12-17T10:26:25;60.22;;;33.05;;
6757;SDS011;3416;53.074;8.822;2022-12-17T10:29:14;83.03;;;37.97;;
6757;SDS011;3416;53.074;8.822;2022-12-17T10:31:59;59.33;;;35.08;;
6757;SDS011;3416;53.074;8.822;2022-12-17T10:34:52;73.57;;;37.63;;
6757;SDS011;3416;53.074;8.822;2022-12-17T10:37:37;71.15;;;41.08;;
6757;SDS011;3416;53.074;8.822;2022-12-17T10:40:23;61.55;;;35.85;;
6757;SDS011;3416;53.074;8.822;2022-12-17T10:43:22;65.90;;;36.80;;
6757;SDS011;3416;53.074;8.822;2022-12-17T10:46:10;65.03;;;36.08;;
6757;SDS011;3416;53.074;8.822;2022-12-17T10:49:03;57.13;;;35.50;;
6757;SDS011;3416;53.074;8.822;2022-12-17T10:51:57;67.10;;;35.03;;
6757;SDS011;3416;53.074;8.822;2022-12-17T10:54:54;61.83;;;34.55;;
6757;SDS011;3416;53.074;8.822;2022-12-17T10:57:39;69.05;;;33.50;;
6757;SDS011;3416;53.074;8.822;2022-12-17T11:00:26;59.17;;;37.42;;
6757;SDS011;3416;53.074;8.822;2022-12-17T11:03:25;61.70;;;35.47;;
6757;SDS011;3416;53.074;8.822;2022-12-17T11:06:11;69.05;;;37.63;;
6757;SDS011;3416;53.074;8.822;2022-12-17T11:09:00;68.05;;;36.38;;
6757;SDS011;3416;53.074;8.822;2022-12-17T11:11:53;57.53;;;34.45;;
6757;SDS011;3416;53.074;8.822;2022-12-17T11:14:39;65.88;;;36.35;;
6757;SDS011;3416;53.074;8.822;2022-12-17T11:17:30;57.35;;;35.83;;
6757;SDS011;3416;53.074;8.822;2022-12-17T11:20:19;62.58;;;37.33;;
6757;SDS011;3416;53.074;8.822;2022-12-17T11:23:07;60.67;;;34.63;;
6757;SDS011;3416;53.074;8.822;2022-12-17T11:26:01;75.13;;;38.17;;
6757;SDS011;3416;53.074;8.822;2022-12-17T11:28:48;89.20;;;40.50;;
6757;SDS011;3416;53.074;8.822;2022-12-17T11:31:41;59.97;;;36.08;;
6757;SDS011;3416;53.074;8.822;2022-12-17T11:34:35;78.20;;;39.80;;
6757;SDS011;3416;53.074;8.822;2022-12-17T11:37:33;74.20;;;41.92;;
6757;SDS011;3416;53.074;8.822;2022-12-17T11:40:27;71.78;;;39.95;;
6757;SDS011;3416;53.074;8.822;2022-12-17T11:43:19;63.95;;;36.15;;
6757;SDS011;3416;53.074;8.822;2022-12-17T11:46:12;67.10;;;35.97;;
6757;SDS011;3416;53.074;8.822;2022-12-17T11:49:08;65.25;;;38.35;;
6757;SDS011;3416;53.074;8.822;2022-12-17T11:52:00;61.22;;;35.83;;
6757;SDS011;3416;53.074;8.822;2022-12-17T11:54:53;63.25;;;35.40;;
6757;SDS011;3416;53.074;8.822;2022-12-17T11:57:46;65.22;;;35.63;;
6757;SDS011;3416;53.074;8.822;2022-12-17T12:00:35;65.00;;;38.28;;
6757;SDS011;3416;53.074;8.822;2022-12-17T12:03:42;68.00;;;38.95;;
6757;SDS011;3416;53.074;8.822;2022-12-17T12:06:35;72.47;;;38.05;;
6757;SDS011;3416;53.074;8.822;2022-12-17T12:09:30;62.55;;;39.47;;
6757;SDS011;3416;53.074;8.822;2022-12-17T12:12:26;73.65;;;39.15;;
6757;SDS011;3416;53.074;8.822;2022-12-17T12:15:23;69.28;;;35.65;;
6757;SDS011;3416;53.074;8.822;2022-12-17T12:18:20;62.50;;;35.53;;
6757;SDS011;3416;53.074;8.822;2022-12-17T12:21:14;61.80;;;36.50;;
6757;SDS011;3416;53.074;8.822;2022-12-17T12:24:16;68.85;;;38.55;;
6757;SDS011;3416;53.074;8.822;2022-12-17T12:27:10;71.78;;;35.58;;
6757;SDS011;3416;53.074;8.822;2022-12-17T12:30:04;70.90;;;38.90;;
6757;SDS011;3416;53.074;8.822;2022-12-17T12:32:54;61.67;;;35.45;;
6757;SDS011;3416;53.074;8.822;2022-12-17T12:35:46;72.45;;;37.60;;
6757;SDS011;3416;53.074;8.822;2022-12-17T12:38:33;72.10;;;40.38;;
6757;SDS011;3416;53.074;8.822;2022-12-17T12:41:25;72.07;;;41.70;;
6757;SDS011;3416;53.074;8.822;2022-12-17T12:44:18;69.82;;;37.17;;
6757;SDS011;3416;53.074;8.822;2022-12-17T12:47:18;69.03;;;36.42;;
6757;SDS011;3416;53.074;8.822;2022-12-17T12:50:09;69.18;;;37.53;;
6757;SDS011;3416;53.074;8.822;2022-12-17T12:52:59;61.90;;;36.03;;
6757;SDS011;3416;53.074;8.822;2022-12-17T12:55:45;65.38;;;36.20;;
6757;SDS011;3416;53.074;8.822;2022-12-17T12:58:30;62.80;;;37.80;;
6757;SDS011;3416;53.074;8.822;2022-12-17T13:01:15;70.93;;;35.42;;
6757;SDS011;3416;53.074;8.822;2022-12-17T13:04:07;65.15;;;37.50;;
6757;SDS011;3416;53.074;8.822;2022-12-17T13:07:03;50.25;;;33.28;;
6757;SDS011;3416;53.074;8.822;2022-12-17T13:09:31;63.95;;;36.22;;
6757;SDS011;3416;53.074;8.822;2022-12-17T13:12:09;64.78;;;37.05;;
6757;SDS011;3416;53.074;8.822;2022-12-17T13:14:47;66.88;;;36.47;;
6757;SDS011;3416;53.074;8.822;2022-12-17T13:17:25;53.90;;;32.85;;
6757;SDS011;3416;53.074;8.822;2022-12-17T13:20:00;66.55;;;36.33;;
6757;SDS011;3416;53.074;8.822;2022-12-17T13:22:31;53.80;;;35.15;;
6757;SDS011;3416;53.074;8.822;2022-12-17T13:25:09;68.75;;;35.50;;
6757;SDS011;3416;53.074;8.822;2022-12-17T13:27:42;70.50;;;37.83;;
6757;SDS011;3416;53.074;8.822;2022-12-17T13:30:20;66.30;;;36.72;;
6757;SDS011;3416;53.074;8.822;2022-12-17T13:32:58;66.72;;;37.03;;
6757;SDS011;3416;53.074;8.822;2022-12-17T13:35:42;66.60;;;34.22;;
6757;SDS011;3416;53.074;8.822;2022-12-17T13:38:18;62.08;;;33.83;;
6757;SDS011;3416;53.074;8.822;2022-12-17T13:40:55;67.95;;;35.08;;
6757;SDS011;3416;53.074;8.822;2022-12-17T13:43:32;73.20;;;34.35;;
6757;SDS011;3416;53.074;8.822;2022-12-17T13:46:03;59.42;;;35.03;;
6757;SDS011;3416;53.074;8.822;2022-12-17T13:48:30;57.92;;;33.17;;
6757;SDS011;3416;53.074;8.822;2022-12-17T13:50:59;53.78;;;31.65;;
6757;SDS011;3416;53.074;8.822;2022-12-17T13:53:28;64.13;;;35.55;;
6757;SDS011;3416;53.074;8.822;2022-12-17T13:55:58;57.13;;;30.85;;
6757;SDS011;3416;53.074;8.822;2022-12-17T13:58:26;61.60;;;36.92;;
6757;SDS011;3416;53.074;8.822;2022-12-17T14:01:04;60.97;;;33.03;;
6757;SDS011;3416;53.074;8.822;2022-12-17T14:03:42;56.80;;;31.05;;
6757;SDS011;3416;53.074;8.822;2022-12-17T14:06:15;58.47;;;33.75;;
6757;SDS011;3416;53.074;8.822;2022-12-17T14:08:42;60.22;;;30.90;;
6757;SDS011;3416;53.074;8.822;2022-12-17T14:11:11;56.08;;;29.75;;
6757;SDS011;3416;53.074;8.822;2022-12-17T14:13:55;59.72;;;30.27;;
6757;SDS011;3416;53.074;8.822;2022-12-17T14:16:22;61.17;;;33.25;;
6757;SDS011;3416;53.074;8.822;2022-12-17T14:18:50;51.15;;;30.52;;
6757;SDS011;3416;53.074;8.822;2022-12-17T14:21:20;58.00;;;28.45;;
6757;SDS011;3416;53.074;8.822;2022-12-17T14:23:48;62.25;;;31.45;;
6757;SDS011;3416;53.074;8.822;2022-12-17T14:26:17;52.28;;;27.83;;
6757;SDS011;3416;53.074;8.822;2022-12-17T14:28:46;47.58;;;28.40;;
6757;SDS011;3416;53.074;8.822;2022-12-17T14:31:18;61.63;;;32.30;;
6757;SDS011;3416;53.074;8.822;2022-12-17T14:33:47;53.85;;;29.25;;
6757;SDS011;3416;53.074;8.822;2022-12-17T14:36:27;51.25;;;28.08;;
6757;SDS011;3416;53.074;8.822;2022-12-17T14:38:56;47.03;;;28.35;;
6757;SDS011;3416;53.074;8.822;2022-12-17T14:41:25;53.38;;;28.92;;
6757;SDS011;3416;53.074;8.822;2022-12-17T14:44:12;47.78;;;26.95;;
6757;SDS011;3416;53.074;8.822;2022-12-17T14:46:43;56.30;;;30.08;;
6757;SDS011;3416;53.074;8.822;2022-12-17T14:49:14;49.53;;;29.02;;
6757;SDS011;3416;53.074;8.822;2022-12-17T14:51:45;54.92;;;30.02;;
6757;SDS011;3416;53.074;8.822;2022-12-17T14:54:17;63.55;;;35.20;;
6757;SDS011;3416;53.074;8.822;2022-12-17T14:56:46;69.63;;;30.30;;
6757;SDS011;3416;53.074;8.822;2022-12-17T14:59:21;64.97;;;30.77;;
6757;SDS011;3416;53.074;8.822;2022-12-17T15:01:49;59.45;;;31.48;;
6757;SDS011;3416;53.074;8.822;2022-12-17T15:04:17;59.03;;;30.63;;
6757;SDS011;3416;53.074;8.822;2022-12-17T15:06:46;61.05;;;30.02;;
6757;SDS011;3416;53.074;8.822;2022-12-17T15:09:13;55.45;;;30.50;;
6757;SDS011;3416;53.074;8.822;2022-12-17T15:11:41;61.42;;;31.40;;
6757;SDS011;3416;53.074;8.822;2022-12-17T15:14:07;70.72;;;34.50;;
6757;SDS011;3416;53.074;8.822;2022-12-17T15:16:34;64.13;;;30.83;;
6757;SDS011;3416;53.074;8.822;2022-12-17T15:19:01;53.47;;;29.73;;
6757;SDS011;3416;53.074;8.822;2022-12-17T15:21:28;63.75;;;34.38;;
6757;SDS011;3416;53.074;8.822;2022-12-17T15:23:56;70.03;;;34.00;;
6757;SDS011;3416;53.074;8.822;2022-12-17T15:26:23;67.55;;;32.97;;
6757;SDS011;3416;53.074;8.822;2022-12-17T15:28:50;61.53;;;33.28;;
6757;SDS011;3416;53.074;8.822;2022-12-17T15:31:17;60.00;;;32.70;;
6757;SDS011;3416;53.074;8.822;2022-12-17T15:33:44;76.20;;;35.17;;
6757;SDS011;3416;53.074;8.822;2022-12-17T15:36:11;69.65;;;36.08;;
6757;SDS011;3416;53.074;8.822;2022-12-17T15:38:38;68.30;;;33.40;;
6757;SDS011;3416;53.074;8.822;2022-12-17T15:41:06;67.72;;;32.88;;
6757;SDS011;3416;53.074;8.822;2022-12-17T15:43:50;66.07;;;36.03;;
6757;SDS011;3416;53.074;8.822;2022-12-17T15:46:17;68.30;;;35.17;;
6757;SDS011;3416;53.074;8.822;2022-12-17T15:48:44;72.32;;;37.22;;
6757;SDS011;3416;53.074;8.822;2022-12-17T15:51:11;77.18;;;37.13;;
6757;SDS011;3416;53.074;8.822;2022-12-17T15:53:38;77.35;;;37.10;;
6757;SDS011;3416;53.074;8.822;2022-12-17T15:56:05;75.75;;;35.38;;
6757;SDS011;3416;53.074;8.822;2022-12-17T15:58:42;71.30;;;37.40;;
6757;SDS011;3416;53.074;8.822;2022-12-17T16:01:09;80.88;;;34.58;;
6757;SDS011;3416;53.074;8.822;2022-12-17T16:03:36;71.93;;;37.40;;
6757;SDS011;3416;53.074;8.822;2022-12-17T16:06:03;70.88;;;36.63;;
6757;SDS011;3416;53.074;8.822;2022-12-17T16:08:30;70.10;;;33.97;;
6757;SDS011;3416;53.074;8.822;2022-12-17T16:10:57;65.95;;;35.22;;
6757;SDS011;3416;53.074;8.822;2022-12-17T16:13:25;68.63;;;34.60;;
6757;SDS011;3416;53.074;8.822;2022-12-17T16:15:54;75.35;;;35.97;;
6757;SDS011;3416;53.074;8.822;2022-12-17T16:18:21;72.80;;;35.42;;
6757;SDS011;3416;53.074;8.822;2022-12-17T16:20:48;76.03;;;37.42;;
6757;SDS011;3416;53.074;8.822;2022-12-17T16:23:15;60.50;;;32.85;;
6757;SDS011;3416;53.074;8.822;2022-12-17T16:25:42;76.00;;;36.17;;
6757;SDS011;3416;53.074;8.822;2022-12-17T16:28:09;67.32;;;35.95;;
6757;SDS011;3416;53.074;8.822;2022-12-17T16:30:38;74.53;;;33.92;;
6757;SDS011;3416;53.074;8.822;2022-12-17T16:33:05;63.00;;;34.03;;
6757;SDS011;3416;53.074;8.822;2022-12-17T16:35:32;64.80;;;31.77;;
6757;SDS011;3416;53.074;8.822;2022-12-17T16:37:58;71.30;;;34.08;;
6757;SDS011;3416;53.074;8.822;2022-12-17T16:40:25;71.53;;;33.75;;
6757;SDS011;3416;53.074;8.822;2022-12-17T16:42:53;68.82;;;35.15;;
6757;SDS011;3416;53.074;8.822;2022-12-17T16:45:21;68.65;;;32.97;;
6757;SDS011;3416;53.074;8.822;2022-12-17T16:47:49;71.38;;;37.72;;
6757;SDS011;3416;53.074;8.822;2022-12-17T16:50:16;74.15;;;36.33;;
6757;SDS011;3416;53.074;8.822;2022-12-17T16:52:43;76.43;;;37.70;;
6757;SDS011;3416;53.074;8.822;2022-12-17T16:55:09;78.20;;;37.88;;
6757;SDS011;3416;53.074;8.822;2022-12-17T16:57:36;78.95;;;37.92;;
6757;SDS011;3416;53.074;8.822;2022-12-17T17:00:03;73.35;;;35.25;;
6757;SDS011;3416;53.074;8.822;2022-12-17T17:02:31;78.22;;;35.35;;